sensor_id;sensor_type;location;lat;lon;timestamp;pressure;altitude;pressure_sealevel;temperature;humidity
49393;BME280;35268;42.642;23.308;2024-03-23T00:55:36;93955.22;;;4.94;54.58
49393;BME280;35268;42.642;23.308;2024-03-23T00:58:02;93948.91;;;4.90;55.21
49393;BME280;35268;42.642;23.308;2024-03-23T01:00:27;93949.75;;;4.85;55.33
49393;BME280;35268;42.642;23.308;2024-03-23T01:02:52;93954.50;;;4.83;54.89
49393;BME280;35268;42.642;23.308;2024-03-23T01:05:18;93949.50;;;4.81;55.04
49393;BME280;35268;42.642;23.308;2024-03-23T01:07:44;93949.75;;;4.80;55.03
49393;BME280;35268;42.642;23.308;2024-03-23T01:10:09;93943.44;;;4.76;55.23
49393;BME280;35268;42.642;23.308;2024-03-23T01:12:35;93944.53;;;4.70;55.79
49393;BME280;35268;42.642;23.308;2024-03-23T01:15:00;93946.13;;;4.71;56.01
49393;BME280;35268;42.642;23.308;2024-03-23T01:17:25;93932.41;;;4.69;56.19
49393;BME280;35268;42.642;23.308;2024-03-23T01:19:51;93939.81;;;4.67;56.26
49393;BME280;35268;42.642;23.308;2024-03-23T01:22:16;93939.56;;;4.63;56.17
49393;BME280;35268;42.642;23.308;2024-03-23T01:24:42;93930.88;;;4.57;56.45
49393;BME280;35268;42.642;23.308;2024-03-23T01:27:08;93937.50;;;4.55;56.43
49393;BME280;35268;42.642;23.308;2024-03-23T01:29:34;93938.28;;;4.55;56.46
49393;BME280;35268;42.642;23.308;2024-03-23T01:31:59;93942.22;;;4.58;55.95
49393;BME280;35268;42.642;23.308;2024-03-23T01:34:24;93940.41;;;4.58;56.26
49393;BME280;35268;42.642;23.308;2024-03-23T01:36:50;93936.94;;;4.58;56.12
49393;BME280;35268;42.642;23.308;2024-03-23T01:39:16;93934.59;;;4.56;56.47
49393;BME280;35268;42.642;23.308;2024-03-23T01:41:42;93950.44;;;4.56;56.95
49393;BME280;35268;42.642;23.308;2024-03-23T01:44:08;93936.72;;;4.54;57.07
49393;BME280;35268;42.642;23.308;2024-03-23T01:46:39;93933.00;;;4.55;57.17
49393;BME280;35268;42.642;23.308;2024-03-23T01:49:06;93943.56;;;4.55;57.36
49393;BME280;35268;42.642;23.308;2024-03-23T01:51:33;93929.59;;;4.55;56.77
49393;BME280;35268;42.642;23.308;2024-03-23T01:54:00;93940.66;;;4.57;56.26
49393;BME280;35268;42.642;23.308;2024-03-23T01:56:34;93941.72;;;4.56;54.77
49393;BME280;35268;42.642;23.308;2024-03-23T01:59:04;93935.13;;;4.53;54.19
49393;BME280;35268;42.642;23.308;2024-03-23T02:01:29;93939.88;;;4.56;54.67
49393;BME280;35268;42.642;23.308;2024-03-23T02:03:55;93939.88;;;4.56;55.02
49393;BME280;35268;42.642;23.308;2024-03-23T02:06:21;93948.06;;;4.55;55.55
49393;BME280;35268;42.642;23.308;2024-03-23T02:08:47;93937.25;;;4.51;55.85
49393;BME280;35268;42.642;23.308;2024-03-23T02:11:13;93937.53;;;4.50;56.06
49393;BME280;35268;42.642;23.308;2024-03-23T02:13:38;93940.16;;;4.50;56.46
49393;BME280;35268;42.642;23.308;2024-03-23T02:16:05;93941.25;;;4.49;56.70
49393;BME280;35268;42.642;23.308;2024-03-23T02:18:31;93949.69;;;4.46;56.57
49393;BME280;35268;42.642;23.308;2024-03-23T02:20:56;93941.56;;;4.42;56.43
49393;BME280;35268;42.642;23.308;2024-03-23T02:23:21;93939.97;;;4.41;56.61
49393;BME280;35268;42.642;23.308;2024-03-23T02:25:47;93946.56;;;4.38;56.61
49393;BME280;35268;42.642;23.308;2024-03-23T02:28:12;93947.63;;;4.37;57.00
49393;BME280;35268;42.642;23.308;2024-03-23T02:30:38;93946.59;;;4.33;57.14
49393;BME280;35268;42.642;23.308;2024-03-23T02:33:04;93950.03;;;4.34;57.06
49393;BME280;35268;42.642;23.308;2024-03-23T02:35:29;93950.56;;;4.31;57.25
49393;BME280;35268;42.642;23.308;2024-03-23T02:37:55;93947.16;;;4.30;56.35
49393;BME280;35268;42.642;23.308;2024-03-23T02:40:23;93947.72;;;4.22;56.63
49393;BME280;35268;42.642;23.308;2024-03-23T02:42:48;93950.09;;;4.24;56.96
49393;BME280;35268;42.642;23.308;2024-03-23T02:45:14;93944.28;;;4.21;57.27
49393;BME280;35268;42.642;23.308;2024-03-23T02:47:39;93943.25;;;4.17;57.56
49393;BME280;35268;42.642;23.308;2024-03-23T02:50:05;93941.13;;;4.19;58.35
49393;BME280;35268;42.642;23.308;2024-03-23T02:52:31;93931.38;;;4.15;58.25
49393;BME280;35268;42.642;23.308;2024-03-23T02:54:57;93936.41;;;4.11;58.25
49393;BME280;35268;42.642;23.308;2024-03-23T02:57:23;93934.31;;;4.08;57.33
49393;BME280;35268;42.642;23.308;2024-03-23T02:59:48;93936.97;;;4.03;57.14
49393;BME280;35268;42.642;23.308;2024-03-23T03:02:15;93932.22;;;4.00;57.06
49393;BME280;35268;42.642;23.308;2024-03-23T03:04:40;93928.28;;;3.97;57.66
49393;BME280;35268;42.642;23.308;2024-03-23T03:07:05;93938.06;;;3.97;57.69
49393;BME280;35268;42.642;23.308;2024-03-23T03:09:31;93939.09;;;3.91;57.79
49393;BME280;35268;42.642;23.308;2024-03-23T03:11:57;93932.78;;;3.87;57.99
49393;BME280;35268;42.642;23.308;2024-03-23T03:14:22;93939.13;;;3.86;58.39
49393;BME280;35268;42.642;23.308;2024-03-23T03:16:47;93928.84;;;3.84;58.56
49393;BME280;35268;42.642;23.308;2024-03-23T03:19:13;93936.53;;;3.75;58.83
49393;BME280;35268;42.642;23.308;2024-03-23T03:21:38;93934.69;;;3.71;59.18
49393;BME280;35268;42.642;23.308;2024-03-23T03:24:06;93939.16;;;3.75;59.61
49393;BME280;35268;42.642;23.308;2024-03-23T03:26:31;93941.81;;;3.70;59.69
49393;BME280;35268;42.642;23.308;2024-03-23T03:28:57;93942.88;;;3.69;59.50
49393;BME280;35268;42.642;23.308;2024-03-23T03:31:22;93934.44;;;3.67;59.60
49393;BME280;35268;42.642;23.308;2024-03-23T03:33:49;93944.47;;;3.65;59.66
49393;BME280;35268;42.642;23.308;2024-03-23T03:36:15;93937.06;;;3.62;59.67
49393;BME280;35268;42.642;23.308;2024-03-23T03:38:41;93936.56;;;3.60;59.60
49393;BME280;35268;42.642;23.308;2024-03-23T03:41:06;93939.19;;;3.60;59.86
49393;BME280;35268;42.642;23.308;2024-03-23T03:43:32;93937.63;;;3.59;59.81
49393;BME280;35268;42.642;23.308;2024-03-23T03:46:00;93939.47;;;3.58;59.83
49393;BME280;35268;42.642;23.308;2024-03-23T03:48:26;93933.69;;;3.56;60.09
49393;BME280;35268;42.642;23.308;2024-03-23T03:50:52;93944.22;;;3.56;60.30
49393;BME280;35268;42.642;23.308;2024-03-23T03:53:17;93945.81;;;3.52;60.43
49393;BME280;35268;42.642;23.308;2024-03-23T03:55:43;93940.81;;;3.51;60.67
49393;BME280;35268;42.642;23.308;2024-03-23T03:58:08;93941.06;;;3.49;60.48
49393;BME280;35268;42.642;23.308;2024-03-23T04:00:34;93950.81;;;3.49;60.58
49393;BME280;35268;42.642;23.308;2024-03-23T04:02:59;93942.38;;;3.47;60.61
49393;BME280;35268;42.642;23.308;2024-03-23T04:05:24;93945.03;;;3.47;60.75
49393;BME280;35268;42.642;23.308;2024-03-23T04:07:50;93939.75;;;3.41;61.23
49393;BME280;35268;42.642;23.308;2024-03-23T04:10:15;93938.19;;;3.35;61.54
49393;BME280;35268;42.642;23.308;2024-03-23T04:12:41;93938.19;;;3.35;61.93
49393;BME280;35268;42.642;23.308;2024-03-23T04:15:07;93946.09;;;3.35;62.01
49393;BME280;35268;42.642;23.308;2024-03-23T04:17:33;93956.63;;;3.35;62.15
49393;BME280;35268;42.642;23.308;2024-03-23T04:20:00;93942.41;;;3.36;61.91
49393;BME280;35268;42.642;23.308;2024-03-23T04:22:26;93942.13;;;3.33;62.26
49393;BME280;35268;42.642;23.308;2024-03-23T04:24:55;93947.66;;;3.31;62.16
49393;BME280;35268;42.642;23.308;2024-03-23T04:27:22;93949.50;;;3.31;62.31
49393;BME280;35268;42.642;23.308;2024-03-23T04:29:48;93948.47;;;3.27;62.52
49393;BME280;35268;42.642;23.308;2024-03-23T04:32:14;93946.63;;;3.27;62.59
49393;BME280;35268;42.642;23.308;2024-03-23T04:34:40;93945.84;;;3.27;62.84
49393;BME280;35268;42.642;23.308;2024-03-23T04:37:05;93956.13;;;3.28;62.91
49393;BME280;35268;42.642;23.308;2024-03-23T04:39:30;93956.91;;;3.29;63.03
49393;BME280;35268;42.642;23.308;2024-03-23T04:41:56;93963.22;;;3.28;62.93
49393;BME280;35268;42.642;23.308;2024-03-23T04:44:21;93960.84;;;3.26;63.30
49393;BME280;35268;42.642;23.308;2024-03-23T04:46:47;93952.13;;;3.26;63.47
49393;BME280;35268;42.642;23.308;2024-03-23T04:49:12;93965.59;;;3.29;63.40
49393;BME280;35268;42.642;23.308;2024-03-23T04:51:37;93960.84;;;3.31;63.64
49393;BME280;35268;42.642;23.308;2024-03-23T04:54:03;93954.81;;;3.36;63.85
49393;BME280;35268;42.642;23.308;2024-03-23T04:56:29;93963.47;;;3.36;63.69
49393;BME280;35268;42.642;23.308;2024-03-23T04:58:56;93967.16;;;3.40;63.72
49393;BME280;35268;42.642;23.308;2024-03-23T05:01:26;93966.63;;;3.44;63.63
49393;BME280;35268;42.642;23.308;2024-03-23T05:03:52;93966.09;;;3.47;63.60
49393;BME280;35268;42.642;23.308;2024-03-23T05:06:18;93965.56;;;3.50;63.58
49393;BME280;35268;42.642;23.308;2024-03-23T05:08:43;93967.13;;;3.56;63.52
49393;BME280;35268;42.642;23.308;2024-03-23T05:11:09;93963.44;;;3.62;63.40
49393;BME280;35268;42.642;23.308;2024-03-23T05:13:35;93962.38;;;3.68;63.06
49393;BME280;35268;42.642;23.308;2024-03-23T05:16:01;93968.94;;;3.76;62.49
49393;BME280;35268;42.642;23.308;2024-03-23T05:18:26;93958.13;;;3.82;62.37
49393;BME280;35268;42.642;23.308;2024-03-23T05:20:57;93952.28;;;3.91;62.10
49393;BME280;35268;42.642;23.308;2024-03-23T05:23:23;93954.94;;;3.96;62.07
49393;BME280;35268;42.642;23.308;2024-03-23T05:25:49;93956.22;;;3.98;61.98
49393;BME280;35268;42.642;23.308;2024-03-23T05:28:14;93957.25;;;4.08;61.83
49393;BME280;35268;42.642;23.308;2024-03-23T05:30:40;93949.31;;;4.13;61.70
49393;BME280;35268;42.642;23.308;2024-03-23T05:33:05;93951.38;;;4.21;61.70
49393;BME280;35268;42.642;23.308;2024-03-23T05:35:31;93948.47;;;4.28;61.57
49393;BME280;35268;42.642;23.308;2024-03-23T05:37:57;93943.16;;;4.33;61.64
49393;BME280;35268;42.642;23.308;2024-03-23T05:40:24;93956.06;;;4.39;61.42
49393;BME280;35268;42.642;23.308;2024-03-23T05:42:49;93953.13;;;4.46;61.58
49393;BME280;35268;42.642;23.308;2024-03-23T05:45:18;93959.47;;;4.50;61.67
49393;BME280;35268;42.642;23.308;2024-03-23T05:47:44;93962.06;;;4.55;61.98
49393;BME280;35268;42.642;23.308;2024-03-23T05:50:10;93961.78;;;4.57;62.04
49393;BME280;35268;42.642;23.308;2024-03-23T05:52:38;93962.84;;;4.56;61.74
49393;BME280;35268;42.642;23.308;2024-03-23T05:55:04;93958.38;;;4.51;61.92
49393;BME280;35268;42.642;23.308;2024-03-23T05:57:30;93963.69;;;4.46;62.03
49393;BME280;35268;42.642;23.308;2024-03-23T05:59:55;93956.00;;;4.50;62.15
49393;BME280;35268;42.642;23.308;2024-03-23T06:02:20;93962.56;;;4.57;61.84
49393;BME280;35268;42.642;23.308;2024-03-23T06:04:46;93961.72;;;4.67;61.60
49393;BME280;35268;42.642;23.308;2024-03-23T06:07:11;93950.31;;;4.77;61.09
49393;BME280;35268;42.642;23.308;2024-03-23T06:09:39;93944.72;;;4.83;60.74
49393;BME280;35268;42.642;23.308;2024-03-23T06:12:05;93955.47;;;4.97;59.68
49393;BME280;35268;42.642;23.308;2024-03-23T06:14:31;93947.72;;;5.06;59.07
49393;BME280;35268;42.642;23.308;2024-03-23T06:16:56;93954.03;;;5.15;58.82
49393;BME280;35268;42.642;23.308;2024-03-23T06:19:21;93950.50;;;5.25;58.50
49393;BME280;35268;42.642;23.308;2024-03-23T06:21:47;93942.53;;;5.30;58.29
49393;BME280;35268;42.642;23.308;2024-03-23T06:24:12;93947.78;;;5.35;57.95
49393;BME280;35268;42.642;23.308;2024-03-23T06:26:38;93941.84;;;5.49;57.48
49393;BME280;35268;42.642;23.308;2024-03-23T06:29:03;93952.38;;;5.54;57.15
49393;BME280;35268;42.642;23.308;2024-03-23T06:31:30;93944.38;;;5.59;56.89
49393;BME280;35268;42.642;23.308;2024-03-23T06:33:55;93944.03;;;5.66;56.85
49393;BME280;35268;42.642;23.308;2024-03-23T06:36:21;93947.66;;;5.75;56.91
49393;BME280;35268;42.642;23.308;2024-03-23T06:38:46;93945.19;;;5.83;56.83
49393;BME280;35268;42.642;23.308;2024-03-23T06:41:12;93943.06;;;5.86;56.56
49393;BME280;35268;42.642;23.308;2024-03-23T06:43:37;93952.00;;;5.95;56.35
49393;BME280;35268;42.642;23.308;2024-03-23T06:46:03;93953.25;;;6.02;56.17
49393;BME280;35268;42.642;23.308;2024-03-23T06:48:31;93946.59;;;6.05;56.31
49393;BME280;35268;42.642;23.308;2024-03-23T06:50:57;93945.72;;;6.10;56.69
49393;BME280;35268;42.642;23.308;2024-03-23T06:53:23;93951.19;;;6.18;56.62
49393;BME280;35268;42.642;23.308;2024-03-23T06:55:55;93944.47;;;6.26;56.27
49393;BME280;35268;42.642;23.308;2024-03-23T06:58:21;93946.00;;;6.32;56.03
49393;BME280;35268;42.642;23.308;2024-03-23T07:00:47;93949.81;;;6.45;55.80
49393;BME280;35268;42.642;23.308;2024-03-23T07:03:13;93942.03;;;6.54;56.28
49393;BME280;35268;42.642;23.308;2024-03-23T07:05:39;93943.94;;;6.67;56.29
49393;BME280;35268;42.642;23.308;2024-03-23T07:08:05;93940.09;;;6.78;55.52
49393;BME280;35268;42.642;23.308;2024-03-23T07:10:30;93942.47;;;6.80;54.64
49393;BME280;35268;42.642;23.308;2024-03-23T07:12:55;93941.31;;;6.86;54.73
49393;BME280;35268;42.642;23.308;2024-03-23T07:15:21;93937.94;;;6.99;54.11
49393;BME280;35268;42.642;23.308;2024-03-23T07:17:47;93934.13;;;7.06;53.94
49393;BME280;35268;42.642;23.308;2024-03-23T07:20:13;93930.31;;;7.12;53.62
49393;BME280;35268;42.642;23.308;2024-03-23T07:22:39;93932.47;;;7.10;53.43
49393;BME280;35268;42.642;23.308;2024-03-23T07:25:05;93927.69;;;7.12;52.63
49393;BME280;35268;42.642;23.308;2024-03-23T07:27:31;93926.63;;;7.13;53.23
49393;BME280;35268;42.642;23.308;2024-03-23T07:29:57;93922.00;;;7.18;53.42
49393;BME280;35268;42.642;23.308;2024-03-23T07:32:22;93919.50;;;7.27;52.89
49393;BME280;35268;42.642;23.308;2024-03-23T07:34:48;93920.97;;;7.33;53.89
49393;BME280;35268;42.642;23.308;2024-03-23T07:37:13;93916.78;;;7.46;53.27
49393;BME280;35268;42.642;23.308;2024-03-23T07:39:42;93916.31;;;7.58;51.44
49393;BME280;35268;42.642;23.308;2024-03-23T07:42:07;93920.75;;;7.62;52.35
49393;BME280;35268;42.642;23.308;2024-03-23T07:44:33;93906.50;;;7.72;51.77
49393;BME280;35268;42.642;23.308;2024-03-23T07:47:00;93912.31;;;7.88;51.45
49393;BME280;35268;42.642;23.308;2024-03-23T07:49:26;93917.34;;;8.03;50.95
49393;BME280;35268;42.642;23.308;2024-03-23T07:51:51;93906.22;;;8.15;50.25
49393;BME280;35268;42.642;23.308;2024-03-23T07:54:16;93907.91;;;8.25;49.76
49393;BME280;35268;42.642;23.308;2024-03-23T07:56:42;93904.53;;;8.33;49.47
49393;BME280;35268;42.642;23.308;2024-03-23T07:59:07;93905.03;;;8.49;49.97
49393;BME280;35268;42.642;23.308;2024-03-23T08:01:33;93906.09;;;8.62;48.96
49393;BME280;35268;42.642;23.308;2024-03-23T08:03:58;93912.94;;;8.77;48.11
49393;BME280;35268;42.642;23.308;2024-03-23T08:06:23;93913.91;;;8.81;46.47
49393;BME280;35268;42.642;23.308;2024-03-23T08:08:52;93910.16;;;8.82;45.99
49393;BME280;35268;42.642;23.308;2024-03-23T08:11:31;93906.59;;;8.87;46.35
49393;BME280;35268;42.642;23.308;2024-03-23T08:13:57;93907.56;;;8.91;46.32
49393;BME280;35268;42.642;23.308;2024-03-23T08:16:23;93896.84;;;8.96;46.86
49393;BME280;35268;42.642;23.308;2024-03-23T08:18:51;93900.22;;;9.10;47.51
49393;BME280;35268;42.642;23.308;2024-03-23T08:21:17;93902.03;;;9.23;47.63
49393;BME280;35268;42.642;23.308;2024-03-23T08:23:43;93902.25;;;9.36;46.66
49393;BME280;35268;42.642;23.308;2024-03-23T08:26:10;93900.78;;;9.52;46.69
49393;BME280;35268;42.642;23.308;2024-03-23T08:28:36;93896.16;;;9.67;46.05
49393;BME280;35268;42.642;23.308;2024-03-23T08:31:07;93885.56;;;9.75;45.06
49393;BME280;35268;42.642;23.308;2024-03-23T08:33:33;93891.88;;;9.88;44.45
49393;BME280;35268;42.642;23.308;2024-03-23T08:36:00;93893.63;;;9.93;43.83
49393;BME280;35268;42.642;23.308;2024-03-23T08:38:27;93895.19;;;9.94;43.85
49393;BME280;35268;42.642;23.308;2024-03-23T08:41:06;93889.25;;;9.97;43.25
49393;BME280;35268;42.642;23.308;2024-03-23T08:43:41;93875.16;;;9.96;43.30
49393;BME280;35268;42.642;23.308;2024-03-23T08:46:11;93879.06;;;9.99;43.58
49393;BME280;35268;42.642;23.308;2024-03-23T08:48:39;93874.56;;;10.08;44.00
49393;BME280;35268;42.642;23.308;2024-03-23T08:51:05;93871.31;;;10.20;44.24
49393;BME280;35268;42.642;23.308;2024-03-23T08:53:31;93866.50;;;10.31;43.32
49393;BME280;35268;42.642;23.308;2024-03-23T08:55:58;93867.75;;;10.42;43.04
49393;BME280;35268;42.642;23.308;2024-03-23T08:58:25;93862.78;;;10.58;42.52
49393;BME280;35268;42.642;23.308;2024-03-23T09:00:54;93860.13;;;10.67;41.91
49393;BME280;35268;42.642;23.308;2024-03-23T09:03:26;93865.47;;;10.75;41.63
49393;BME280;35268;42.642;23.308;2024-03-23T09:05:52;93859.66;;;10.82;41.15
49393;BME280;35268;42.642;23.308;2024-03-23T09:08:18;93854.00;;;10.92;41.18
49393;BME280;35268;42.642;23.308;2024-03-23T09:10:43;93852.91;;;11.02;40.54
49393;BME280;35268;42.642;23.308;2024-03-23T09:13:09;93849.44;;;11.10;40.46
49393;BME280;35268;42.642;23.308;2024-03-23T09:15:35;93846.59;;;11.24;40.00
49393;BME280;35268;42.642;23.308;2024-03-23T09:18:01;93848.94;;;11.34;39.78
49393;BME280;35268;42.642;23.308;2024-03-23T09:20:27;93830.38;;;11.47;40.05
49393;BME280;35268;42.642;23.308;2024-03-23T09:22:52;93824.69;;;11.57;39.50
49393;BME280;35268;42.642;23.308;2024-03-23T09:25:17;93827.94;;;11.71;38.09
49393;BME280;35268;42.642;23.308;2024-03-23T09:27:46;93821.78;;;11.79;37.89
49393;BME280;35268;42.642;23.308;2024-03-23T09:30:12;93814.66;;;11.92;37.89
49393;BME280;35268;42.642;23.308;2024-03-23T09:32:37;93812.88;;;12.05;36.66
49393;BME280;35268;42.642;23.308;2024-03-23T09:35:03;93815.28;;;11.98;36.28
49393;BME280;35268;42.642;23.308;2024-03-23T09:37:28;93813.84;;;12.00;36.36
49393;BME280;35268;42.642;23.308;2024-03-23T09:39:54;93805.38;;;11.98;36.99
49393;BME280;35268;42.642;23.308;2024-03-23T09:42:19;93807.72;;;12.00;36.42
49393;BME280;35268;42.642;23.308;2024-03-23T09:44:45;93801.09;;;12.06;35.51
49393;BME280;35268;42.642;23.308;2024-03-23T09:47:10;93798.72;;;12.04;35.37
49393;BME280;35268;42.642;23.308;2024-03-23T09:49:35;93795.28;;;12.04;35.76
49393;BME280;35268;42.642;23.308;2024-03-23T09:52:02;93787.41;;;12.08;35.92
49393;BME280;35268;42.642;23.308;2024-03-23T09:54:28;93788.47;;;12.15;36.16
49393;BME280;35268;42.642;23.308;2024-03-23T09:56:53;93782.53;;;12.31;36.43
49393;BME280;35268;42.642;23.308;2024-03-23T09:59:18;93781.22;;;12.37;36.37
49393;BME280;35268;42.642;23.308;2024-03-23T10:01:44;93775.72;;;12.42;36.30
49393;BME280;35268;42.642;23.308;2024-03-23T10:04:10;93775.78;;;12.54;36.35
49393;BME280;35268;42.642;23.308;2024-03-23T10:06:35;93765.25;;;12.70;36.20
49393;BME280;35268;42.642;23.308;2024-03-23T10:09:02;93762.09;;;12.89;36.43
49393;BME280;35268;42.642;23.308;2024-03-23T10:11:27;93762.59;;;13.03;35.56
49393;BME280;35268;42.642;23.308;2024-03-23T10:13:54;93757.56;;;13.02;34.30
49393;BME280;35268;42.642;23.308;2024-03-23T10:16:23;93758.22;;;12.99;34.97
49393;BME280;35268;42.642;23.308;2024-03-23T10:18:49;93753.34;;;13.13;35.07
49393;BME280;35268;42.642;23.308;2024-03-23T10:21:15;93740.59;;;13.31;35.58
49393;BME280;35268;42.642;23.308;2024-03-23T10:23:42;93747.75;;;13.39;33.77
49393;BME280;35268;42.642;23.308;2024-03-23T10:26:21;93734.25;;;13.48;32.61
49393;BME280;35268;42.642;23.308;2024-03-23T10:28:57;93735.16;;;13.52;33.15
49393;BME280;35268;42.642;23.308;2024-03-23T10:31:31;93730.56;;;13.53;33.38
49393;BME280;35268;42.642;23.308;2024-03-23T10:33:57;93732.91;;;13.67;33.31
49393;BME280;35268;42.642;23.308;2024-03-23T10:36:23;93722.88;;;13.88;33.14
49393;BME280;35268;42.642;23.308;2024-03-23T10:38:53;93729.44;;;14.03;31.66
49393;BME280;35268;42.642;23.308;2024-03-23T10:41:19;93717.69;;;14.08;31.56
49393;BME280;35268;42.642;23.308;2024-03-23T10:43:46;93706.06;;;14.16;32.39
49393;BME280;35268;42.642;23.308;2024-03-23T10:46:11;93698.69;;;14.25;32.76
49393;BME280;35268;42.642;23.308;2024-03-23T10:48:37;93694.94;;;14.42;32.68
49393;BME280;35268;42.642;23.308;2024-03-23T10:51:04;93683.16;;;14.59;32.63
49393;BME280;35268;42.642;23.308;2024-03-23T10:53:32;93683.09;;;14.71;31.85
49393;BME280;35268;42.642;23.308;2024-03-23T10:55:58;93683.13;;;14.87;30.94
49393;BME280;35268;42.642;23.308;2024-03-23T10:58:28;93672.31;;;14.99;31.43
49393;BME280;35268;42.642;23.308;2024-03-23T11:00:55;93671.66;;;15.02;31.50
49393;BME280;35268;42.642;23.308;2024-03-23T11:03:34;93661.78;;;15.07;29.98
49393;BME280;35268;42.642;23.308;2024-03-23T11:06:00;93657.44;;;15.18;31.34
49393;BME280;35268;42.642;23.308;2024-03-23T11:08:37;93658.31;;;15.22;29.31
49393;BME280;35268;42.642;23.308;2024-03-23T11:11:19;93644.00;;;15.18;28.89
49393;BME280;35268;42.642;23.308;2024-03-23T11:13:49;93645.25;;;15.20;29.23
49393;BME280;35268;42.642;23.308;2024-03-23T11:16:28;93642.81;;;15.31;30.95
49393;BME280;35268;42.642;23.308;2024-03-23T11:19:37;93622.94;;;15.52;30.54
49393;BME280;35268;42.642;23.308;2024-03-23T11:22:04;93623.88;;;15.59;28.98
49393;BME280;35268;42.642;23.308;2024-03-23T11:24:30;93625.00;;;15.58;29.43
49393;BME280;35268;42.642;23.308;2024-03-23T11:26:56;93612.09;;;15.64;29.17
49393;BME280;35268;42.642;23.308;2024-03-23T11:29:25;93613.69;;;15.84;29.65
49393;BME280;35268;42.642;23.308;2024-03-23T11:31:52;93610.25;;;15.84;29.55
49393;BME280;35268;42.642;23.308;2024-03-23T11:34:20;93608.34;;;16.04;28.28
49393;BME280;35268;42.642;23.308;2024-03-23T11:36:47;93599.31;;;16.12;28.39
49393;BME280;35268;42.642;23.308;2024-03-23T11:39:19;93596.59;;;16.12;28.12
49393;BME280;35268;42.642;23.308;2024-03-23T11:41:53;93600.56;;;16.18;28.14
49393;BME280;35268;42.642;23.308;2024-03-23T11:44:20;93588.81;;;16.07;27.97
49393;BME280;35268;42.642;23.308;2024-03-23T11:46:47;93586.19;;;15.91;27.84
49393;BME280;35268;42.642;23.308;2024-03-23T11:49:27;93571.16;;;15.71;27.85
49393;BME280;35268;42.642;23.308;2024-03-23T11:51:54;93575.94;;;15.77;28.74
49393;BME280;35268;42.642;23.308;2024-03-23T11:54:24;93564.22;;;15.86;27.51
49393;BME280;35268;42.642;23.308;2024-03-23T11:57:01;93566.03;;;16.01;29.29
49393;BME280;35268;42.642;23.308;2024-03-23T12:01:59;93559.06;;;16.39;27.08
49393;BME280;35268;42.642;23.308;2024-03-23T12:04:28;93546.47;;;16.43;27.86
49393;BME280;35268;42.642;23.308;2024-03-23T12:07:15;93541.28;;;16.54;26.83
49393;BME280;35268;42.642;23.308;2024-03-23T12:09:44;93542.59;;;16.63;27.82
49393;BME280;35268;42.642;23.308;2024-03-23T12:12:16;93524.13;;;16.85;29.02
49393;BME280;35268;42.642;23.308;2024-03-23T12:15:00;93524.59;;;17.14;27.45
49393;BME280;35268;42.642;23.308;2024-03-23T12:17:26;93530.41;;;17.46;26.58
49393;BME280;35268;42.642;23.308;2024-03-23T12:19:51;93519.81;;;17.60;26.39
49393;BME280;35268;42.642;23.308;2024-03-23T12:22:20;93518.81;;;17.72;25.89
49393;BME280;35268;42.642;23.308;2024-03-23T12:24:46;93519.28;;;17.78;25.37
49393;BME280;35268;42.642;23.308;2024-03-23T12:27:11;93513.72;;;17.63;24.97
49393;BME280;35268;42.642;23.308;2024-03-23T12:29:37;93513.56;;;17.53;25.43
49393;BME280;35268;42.642;23.308;2024-03-23T12:32:04;93514.63;;;17.44;23.80
49393;BME280;35268;42.642;23.308;2024-03-23T12:34:30;93511.81;;;17.37;23.87
49393;BME280;35268;42.642;23.308;2024-03-23T12:36:56;93505.09;;;17.54;26.18
49393;BME280;35268;42.642;23.308;2024-03-23T12:39:22;93497.03;;;17.84;25.57
49393;BME280;35268;42.642;23.308;2024-03-23T12:41:48;93489.59;;;18.08;23.26
49393;BME280;35268;42.642;23.308;2024-03-23T12:44:14;93490.56;;;18.27;23.02
49393;BME280;35268;42.642;23.308;2024-03-23T12:46:43;93475.28;;;18.41;23.41
49393;BME280;35268;42.642;23.308;2024-03-23T12:49:10;93478.53;;;18.61;23.06
49393;BME280;35268;42.642;23.308;2024-03-23T12:51:35;93471.88;;;18.89;22.34
49393;BME280;35268;42.642;23.308;2024-03-23T12:54:01;93474.69;;;19.11;22.09
49393;BME280;35268;42.642;23.308;2024-03-23T12:56:26;93464.38;;;19.27;22.46
49393;BME280;35268;42.642;23.308;2024-03-23T12:58:55;93461.81;;;19.52;22.31
49393;BME280;35268;42.642;23.308;2024-03-23T13:01:26;93457.69;;;19.80;21.44
49393;BME280;35268;42.642;23.308;2024-03-23T13:03:52;93453.13;;;19.95;20.03
49393;BME280;35268;42.642;23.308;2024-03-23T13:06:18;93441.16;;;20.07;20.29
49393;BME280;35268;42.642;23.308;2024-03-23T13:08:45;93451.63;;;20.26;20.30
49393;BME280;35268;42.642;23.308;2024-03-23T13:11:11;93440.47;;;20.42;19.17
49393;BME280;35268;42.642;23.308;2024-03-23T13:13:37;93438.91;;;20.48;17.10
49393;BME280;35268;42.642;23.308;2024-03-23T13:16:03;93437.72;;;20.35;17.95
49393;BME280;35268;42.642;23.308;2024-03-23T13:18:30;93430.00;;;20.30;17.65
49393;BME280;35268;42.642;23.308;2024-03-23T13:20:55;93426.16;;;20.38;18.86
49393;BME280;35268;42.642;23.308;2024-03-23T13:23:21;93430.00;;;20.55;17.88
49393;BME280;35268;42.642;23.308;2024-03-23T13:25:53;93425.00;;;20.75;17.60
49393;BME280;35268;42.642;23.308;2024-03-23T13:28:22;93418.41;;;20.97;17.51
49393;BME280;35268;42.642;23.308;2024-03-23T13:33:17;93421.81;;;21.44;16.84
49393;BME280;35268;42.642;23.308;2024-03-23T13:35:52;93414.38;;;21.63;16.13
49393;BME280;35268;42.642;23.308;2024-03-23T13:38:17;93412.41;;;21.78;16.04
49393;BME280;35268;42.642;23.308;2024-03-23T13:40:53;93411.19;;;21.86;15.96
49393;BME280;35268;42.642;23.308;2024-03-23T13:43:19;93416.78;;;21.39;16.41
49393;BME280;35268;42.642;23.308;2024-03-23T13:45:46;93410.22;;;21.22;16.16
49393;BME280;35268;42.642;23.308;2024-03-23T13:48:11;93399.84;;;20.99;15.73
49393;BME280;35268;42.642;23.308;2024-03-23T13:50:37;93392.13;;;20.76;16.37
49393;BME280;35268;42.642;23.308;2024-03-23T13:53:02;93393.66;;;20.81;16.16